sensor_id;sensor_type;location;lat;lon;timestamp;pressure;altitude;pressure_sealevel;temperature;humidity
71805;BME280;59654;52.216;5.616;2022-09-01T00:00:19;102049.09;;;14.82;70.00
71805;BME280;59654;52.216;5.616;2022-09-01T00:00:51;102055.41;;;14.81;70.50
71805;BME280;59654;52.216;5.616;2022-09-01T00:01:22;102044.72;;;14.79;68.91
71805;BME280;59654;52.216;5.616;2022-09-01T00:01:56;102047.50;;;14.76;70.29
71805;BME280;59654;52.216;5.616;2022-09-01T00:02:27;102047.56;;;14.75;69.97
71805;BME280;59654;52.216;5.616;2022-09-01T00:02:58;102040.47;;;14.72;69.85
71805;BME280;59654;52.216;5.616;2022-09-01T00:03:28;102039.59;;;14.72;69.49
71805;BME280;59654;52.216;5.616;2022-09-01T00:04:00;102052.97;;;14.73;70.79
71805;BME280;59654;52.216;5.616;2022-09-01T00:04:32;102040.53;;;14.71;70.80
71805;BME280;59654;52.216;5.616;2022-09-01T00:05:06;102048.72;;;14.68;70.33
71805;BME280;59654;52.216;5.616;2022-09-01T00:05:37;102048.72;;;14.68;70.22
71805;BME280;59654;52.216;5.616;2022-09-01T00:06:07;102048.84;;;14.65;70.91
71805;BME280;59654;52.216;5.616;2022-09-01T00:06:39;102044.38;;;14.64;70.60
71805;BME280;59654;52.216;5.616;2022-09-01T00:07:15;102047.16;;;14.61;70.58
71805;BME280;59654;52.216;5.616;2022-09-01T00:07:46;102052.50;;;14.61;70.52
71805;BME280;59654;52.216;5.616;2022-09-01T00:08:18;102044.56;;;14.58;70.83
71805;BME280;59654;52.216;5.616;2022-09-01T00:08:55;102050.88;;;14.57;70.60
71805;BME280;59654;52.216;5.616;2022-09-01T00:09:26;102049.16;;;14.54;71.25
71805;BME280;59654;52.216;5.616;2022-09-01T00:09:58;102043.06;;;14.51;70.50
71805;BME280;59654;52.216;5.616;2022-09-01T00:10:29;102052.91;;;14.50;71.03
71805;BME280;59654;52.216;5.616;2022-09-01T00:11:00;102045.78;;;14.49;71.72
71805;BME280;59654;52.216;5.616;2022-09-01T00:11:32;102052.03;;;14.49;70.84
71805;BME280;59654;52.216;5.616;2022-09-01T00:12:05;102041.09;;;14.54;71.30
71805;BME280;59654;52.216;5.616;2022-09-01T00:12:38;102051.84;;;14.54;71.65
71805;BME280;59654;52.216;5.616;2022-09-01T00:13:08;102045.53;;;14.55;71.15
71805;BME280;59654;52.216;5.616;2022-09-01T00:13:39;102042.88;;;14.55;71.27
71805;BME280;59654;52.216;5.616;2022-09-01T00:14:11;102038.38;;;14.56;71.00
71805;BME280;59654;52.216;5.616;2022-09-01T00:14:43;102040.13;;;14.57;71.82
71805;BME280;59654;52.216;5.616;2022-09-01T00:15:14;102044.66;;;14.55;71.17
71805;BME280;59654;52.216;5.616;2022-09-01T00:15:45;102043.75;;;14.56;70.68
71805;BME280;59654;52.216;5.616;2022-09-01T00:16:17;102045.59;;;14.54;71.56
71805;BME280;59654;52.216;5.616;2022-09-01T00:16:49;102043.06;;;14.51;71.50
71805;BME280;59654;52.216;5.616;2022-09-01T00:17:20;102036.81;;;14.50;71.09
71805;BME280;59654;52.216;5.616;2022-09-01T00:17:51;102038.59;;;14.49;71.24
71805;BME280;59654;52.216;5.616;2022-09-01T00:18:22;102037.69;;;14.51;70.96
71805;BME280;59654;52.216;5.616;2022-09-01T00:18:54;102040.38;;;14.51;71.21
71805;BME280;59654;52.216;5.616;2022-09-01T00:19:25;102039.44;;;14.52;71.50
71805;BME280;59654;52.216;5.616;2022-09-01T00:19:56;102040.22;;;14.54;71.10
71805;BME280;59654;52.216;5.616;2022-09-01T00:20:27;102048.22;;;14.55;71.05
71805;BME280;59654;52.216;5.616;2022-09-01T00:20:58;102035.59;;;14.59;71.11
71805;BME280;59654;52.216;5.616;2022-09-01T00:21:33;102041.94;;;14.56;71.35
71805;BME280;59654;52.216;5.616;2022-09-01T00:22:09;102041.00;;;14.57;70.94
71805;BME280;59654;52.216;5.616;2022-09-01T00:22:39;102045.50;;;14.57;71.78
71805;BME280;59654;52.216;5.616;2022-09-01T00:23:10;102036.63;;;14.55;71.65
71805;BME280;59654;52.216;5.616;2022-09-01T00:23:41;102047.34;;;14.55;71.32
71805;BME280;59654;52.216;5.616;2022-09-01T00:24:14;102035.81;;;14.53;71.36
71805;BME280;59654;52.216;5.616;2022-09-01T00:24:46;102038.44;;;14.54;71.35
71805;BME280;59654;52.216;5.616;2022-09-01T00:25:19;102041.00;;;14.57;71.55
71805;BME280;59654;52.216;5.616;2022-09-01T00:25:50;102043.69;;;14.57;71.28
71805;BME280;59654;52.216;5.616;2022-09-01T00:26:21;102038.38;;;14.56;71.00
71805;BME280;59654;52.216;5.616;2022-09-01T00:26:55;102037.44;;;14.57;71.36
71805;BME280;59654;52.216;5.616;2022-09-01T00:27:28;102038.56;;;14.51;71.31
71805;BME280;59654;52.216;5.616;2022-09-01T00:27:59;102040.38;;;14.51;72.05
71805;BME280;59654;52.216;5.616;2022-09-01T00:28:36;102045.78;;;14.49;71.72
71805;BME280;59654;52.216;5.616;2022-09-01T00:29:07;102044.03;;;14.48;71.83
71805;BME280;59654;52.216;5.616;2022-09-01T00:29:38;102034.22;;;14.47;71.43
71805;BME280;59654;52.216;5.616;2022-09-01T00:30:09;102030.66;;;14.46;71.62
71805;BME280;59654;52.216;5.616;2022-09-01T00:30:40;102033.41;;;14.45;71.93
71805;BME280;59654;52.216;5.616;2022-09-01T00:31:11;102036.09;;;14.45;72.29
71805;BME280;59654;52.216;5.616;2022-09-01T00:31:50;102045.06;;;14.44;72.02
71805;BME280;59654;52.216;5.616;2022-09-01T00:32:46;102040.53;;;14.46;72.28
71805;BME280;59654;52.216;5.616;2022-09-01T00:33:19;102036.03;;;14.46;71.56
71805;BME280;59654;52.216;5.616;2022-09-01T00:33:51;102035.16;;;14.46;71.57
71805;BME280;59654;52.216;5.616;2022-09-01T00:34:22;102038.81;;;14.43;71.71
71805;BME280;59654;52.216;5.616;2022-09-01T00:34:53;102038.00;;;14.41;71.57
71805;BME280;59654;52.216;5.616;2022-09-01T00:35:24;102038.75;;;14.45;71.95
71805;BME280;59654;52.216;5.616;2022-09-01T00:35:54;102029.78;;;14.46;71.57
71805;BME280;59654;52.216;5.616;2022-09-01T00:36:25;102034.22;;;14.47;71.29
71805;BME280;59654;52.216;5.616;2022-09-01T00:36:56;102040.41;;;14.49;71.48
71805;BME280;59654;52.216;5.616;2022-09-01T00:37:27;102034.13;;;14.50;71.15
71805;BME280;59654;52.216;5.616;2022-09-01T00:37:58;102035.09;;;14.47;70.66
71805;BME280;59654;52.216;5.616;2022-09-01T00:38:29;102035.19;;;14.44;72.08
71805;BME280;59654;52.216;5.616;2022-09-01T00:39:01;102032.63;;;14.41;71.86
71805;BME280;59654;52.216;5.616;2022-09-01T00:39:32;102038.00;;;14.41;71.12
71805;BME280;59654;52.216;5.616;2022-09-01T00:40:05;102035.25;;;14.43;71.42
71805;BME280;59654;52.216;5.616;2022-09-01T00:40:36;102033.50;;;14.42;71.44
71805;BME280;59654;52.216;5.616;2022-09-01T00:41:15;102031.97;;;14.35;72.44
71805;BME280;59654;52.216;5.616;2022-09-01T00:41:48;102038.22;;;14.35;72.18
71805;BME280;59654;52.216;5.616;2022-09-01T00:42:20;102034.66;;;14.35;72.20
71805;BME280;59654;52.216;5.616;2022-09-01T00:42:51;102039.16;;;14.34;72.69
71805;BME280;59654;52.216;5.616;2022-09-01T00:43:45;102031.09;;;14.34;71.35
71805;BME280;59654;52.216;5.616;2022-09-01T00:44:21;102039.31;;;14.30;72.68
71805;BME280;59654;52.216;5.616;2022-09-01T00:44:53;102032.97;;;14.32;72.63
71805;BME280;59654;52.216;5.616;2022-09-01T00:45:24;102033.00;;;14.31;72.25
71805;BME280;59654;52.216;5.616;2022-09-01T00:45:55;102033.94;;;14.30;71.37
71805;BME280;59654;52.216;5.616;2022-09-01T00:46:33;102033.97;;;14.28;72.05
71805;BME280;59654;52.216;5.616;2022-09-01T00:47:09;102032.28;;;14.26;72.42
71805;BME280;59654;52.216;5.616;2022-09-01T00:47:40;102026.13;;;14.22;72.55
71805;BME280;59654;52.216;5.616;2022-09-01T00:48:13;102029.75;;;14.21;72.20
71805;BME280;59654;52.216;5.616;2022-09-01T00:48:47;102028.91;;;14.21;72.51
71805;BME280;59654;52.216;5.616;2022-09-01T00:49:45;102029.75;;;14.21;72.17
71805;BME280;59654;52.216;5.616;2022-09-01T00:50:19;102035.19;;;14.20;72.09
71805;BME280;59654;52.216;5.616;2022-09-01T00:50:51;102029.75;;;14.21;72.79
71805;BME280;59654;52.216;5.616;2022-09-01T00:51:22;102029.00;;;14.18;73.16
71805;BME280;59654;52.216;5.616;2022-09-01T00:52:00;102022.72;;;14.19;73.12
71805;BME280;59654;52.216;5.616;2022-09-01T00:52:50;102034.63;;;14.10;73.00
71805;BME280;59654;52.216;5.616;2022-09-01T00:53:22;102022.91;;;14.12;72.82
71805;BME280;59654;52.216;5.616;2022-09-01T00:53:54;102027.28;;;14.15;72.61
71805;BME280;59654;52.216;5.616;2022-09-01T00:54:32;102027.28;;;14.15;72.44
71805;BME280;59654;52.216;5.616;2022-09-01T00:55:22;102030.84;;;14.16;73.42
71805;BME280;59654;52.216;5.616;2022-09-01T00:55:56;102022.81;;;14.16;72.11
71805;BME280;59654;52.216;5.616;2022-09-01T00:56:28;102021.88;;;14.17;72.22
71805;BME280;59654;52.216;5.616;2022-09-01T00:57:01;102029.00;;;14.18;72.75
71805;BME280;59654;52.216;5.616;2022-09-01T00:57:33;102021.84;;;14.18;72.68
71805;BME280;59654;52.216;5.616;2022-09-01T00:58:06;102019.09;;;14.20;72.66
71805;BME280;59654;52.216;5.616;2022-09-01T00:58:38;102023.41;;;14.24;71.96
71805;BME280;59654;52.216;5.616;2022-09-01T00:59:11;102020.72;;;14.24;71.72
71805;BME280;59654;52.216;5.616;2022-09-01T00:59:50;102017.94;;;14.27;72.44
71805;BME280;59654;52.216;5.616;2022-09-01T01:00:27;102026.13;;;14.22;72.17
71805;BME280;59654;52.216;5.616;2022-09-01T01:01:00;102020.97;;;14.18;72.14
71805;BME280;59654;52.216;5.616;2022-09-01T01:02:08;102018.41;;;14.13;71.88
71805;BME280;59654;52.216;5.616;2022-09-01T01:03:16;102013.06;;;14.13;72.84
71805;BME280;59654;52.216;5.616;2022-09-01T01:04:26;102017.53;;;14.12;72.65
71805;BME280;59654;52.216;5.616;2022-09-01T01:05:38;102022.03;;;14.12;72.42
71805;BME280;59654;52.216;5.616;2022-09-01T01:06:52;102018.38;;;14.14;71.92
71805;BME280;59654;52.216;5.616;2022-09-01T01:08:03;102014.81;;;14.14;72.48
71805;BME280;59654;52.216;5.616;2022-09-01T01:09:12;102019.34;;;14.12;72.31
71805;BME280;59654;52.216;5.616;2022-09-01T01:10:20;102013.97;;;14.12;72.96
71805;BME280;59654;52.216;5.616;2022-09-01T01:11:30;102016.56;;;14.15;72.70
71805;BME280;59654;52.216;5.616;2022-09-01T01:12:38;102008.53;;;14.15;72.51
71805;BME280;59654;52.216;5.616;2022-09-01T01:13:51;102014.81;;;14.14;71.58
71805;BME280;59654;52.216;5.616;2022-09-01T01:15:07;102005.06;;;14.11;71.85
71805;BME280;59654;52.216;5.616;2022-09-01T01:16:20;102018.56;;;14.08;72.02
71805;BME280;59654;52.216;5.616;2022-09-01T01:17:34;102004.22;;;14.09;72.44
71805;BME280;59654;52.216;5.616;2022-09-01T01:18:43;102012.44;;;14.05;72.04
71805;BME280;59654;52.216;5.616;2022-09-01T01:19:54;102012.50;;;14.03;72.08
71805;BME280;59654;52.216;5.616;2022-09-01T01:21:06;102007.25;;;14.00;72.49
71805;BME280;59654;52.216;5.616;2022-09-01T01:23:51;102011.44;;;14.07;72.25
71805;BME280;59654;52.216;5.616;2022-09-01T01:25:04;102007.84;;;14.08;72.11
71805;BME280;59654;52.216;5.616;2022-09-01T01:26:12;102005.06;;;14.11;71.27
71805;BME280;59654;52.216;5.616;2022-09-01T01:27:17;102006.00;;;14.10;71.85
71805;BME280;59654;52.216;5.616;2022-09-01T01:28:06;102004.22;;;14.09;71.56
71805;BME280;59654;52.216;5.616;2022-09-01T01:28:45;102009.59;;;14.09;72.13
71805;BME280;59654;52.216;5.616;2022-09-01T01:29:17;102007.88;;;14.07;71.95
71805;BME280;59654;52.216;5.616;2022-09-01T01:29:49;102002.56;;;14.05;71.93
71805;BME280;59654;52.216;5.616;2022-09-01T01:30:23;102002.72;;;14.02;72.11
71805;BME280;59654;52.216;5.616;2022-09-01T01:31:00;102003.63;;;14.01;72.08
71805;BME280;59654;52.216;5.616;2022-09-01T01:31:35;101997.34;;;14.02;72.35
71805;BME280;59654;52.216;5.616;2022-09-01T01:32:06;102006.31;;;14.01;72.06
71805;BME280;59654;52.216;5.616;2022-09-01T01:32:43;102004.47;;;14.03;72.41
71805;BME280;59654;52.216;5.616;2022-09-01T01:33:15;102001.69;;;14.05;71.67
71805;BME280;59654;52.216;5.616;2022-09-01T01:33:53;102001.59;;;14.08;71.12
71805;BME280;59654;52.216;5.616;2022-09-01T01:34:25;102008.81;;;14.06;71.19
71805;BME280;59654;52.216;5.616;2022-09-01T01:34:56;102003.44;;;14.06;71.65
71805;BME280;59654;52.216;5.616;2022-09-01T01:35:27;102003.59;;;14.03;71.46
71805;BME280;59654;52.216;5.616;2022-09-01T01:35:59;102002.75;;;14.01;71.39
71805;BME280;59654;52.216;5.616;2022-09-01T01:36:34;102005.44;;;14.01;71.57
71805;BME280;59654;52.216;5.616;2022-09-01T01:37:07;102010.69;;;14.04;71.42
71805;BME280;59654;52.216;5.616;2022-09-01T01:37:42;102008.03;;;14.04;71.97
71805;BME280;59654;52.216;5.616;2022-09-01T01:38:18;102003.59;;;14.03;71.90
71805;BME280;59654;52.216;5.616;2022-09-01T01:38:52;101999.97;;;14.04;71.31
71805;BME280;59654;52.216;5.616;2022-09-01T01:39:24;102006.31;;;14.01;71.81
71805;BME280;59654;52.216;5.616;2022-09-01T01:39:56;102004.59;;;13.99;72.20
71805;BME280;59654;52.216;5.616;2022-09-01T01:40:28;102005.53;;;13.98;71.35
71805;BME280;59654;52.216;5.616;2022-09-01T01:41:00;102008.22;;;13.98;71.95
71805;BME280;59654;52.216;5.616;2022-09-01T01:41:33;102006.41;;;13.98;71.93
71805;BME280;59654;52.216;5.616;2022-09-01T01:42:06;102010.81;;;14.01;71.26
71805;BME280;59654;52.216;5.616;2022-09-01T01:42:38;102011.59;;;14.04;71.00
71805;BME280;59654;52.216;5.616;2022-09-01T01:43:10;102005.34;;;14.04;71.74
71805;BME280;59654;52.216;5.616;2022-09-01T01:43:49;102006.22;;;14.04;71.09
71805;BME280;59654;52.216;5.616;2022-09-01T01:44:24;102001.66;;;14.06;71.30
71805;BME280;59654;52.216;5.616;2022-09-01T01:44:59;102000.84;;;14.04;71.52
71805;BME280;59654;52.216;5.616;2022-09-01T01:45:30;102007.94;;;14.05;71.82
71805;BME280;59654;52.216;5.616;2022-09-01T01:46:04;102003.63;;;14.01;71.40
71805;BME280;59654;52.216;5.616;2022-09-01T01:46:47;102001.00;;;14.00;71.64
71805;BME280;59654;52.216;5.616;2022-09-01T01:47:21;102004.56;;;14.00;71.08
71805;BME280;59654;52.216;5.616;2022-09-01T01:47:53;102002.75;;;14.01;71.11
71805;BME280;59654;52.216;5.616;2022-09-01T01:48:27;102001.06;;;13.98;71.07
71805;BME280;59654;52.216;5.616;2022-09-01T01:48:59;102006.41;;;13.98;71.03
71805;BME280;59654;52.216;5.616;2022-09-01T01:49:33;102004.59;;;13.99;71.28
71805;BME280;59654;52.216;5.616;2022-09-01T01:50:05;102002.81;;;13.99;71.53
71805;BME280;59654;52.216;5.616;2022-09-01T01:50:39;102009.88;;;14.02;70.97
71805;BME280;59654;52.216;5.616;2022-09-01T01:51:12;102005.44;;;14.01;71.82
71805;BME280;59654;52.216;5.616;2022-09-01T01:51:44;102004.59;;;13.99;70.56
71805;BME280;59654;52.216;5.616;2022-09-01T01:52:17;102002.81;;;13.99;70.85
71805;BME280;59654;52.216;5.616;2022-09-01T01:52:50;102005.53;;;13.98;71.29
71805;BME280;59654;52.216;5.616;2022-09-01T01:53:21;102000.19;;;13.98;70.87
71805;BME280;59654;52.216;5.616;2022-09-01T01:53:55;102009.16;;;13.97;71.29
71805;BME280;59654;52.216;5.616;2022-09-01T01:54:29;102004.75;;;13.94;71.79
71805;BME280;59654;52.216;5.616;2022-09-01T01:55:02;102011.91;;;13.94;71.52
71805;BME280;59654;52.216;5.616;2022-09-01T01:55:35;102004.03;;;13.89;71.69
71805;BME280;59654;52.216;5.616;2022-09-01T01:56:06;102000.59;;;13.86;71.32
71805;BME280;59654;52.216;5.616;2022-09-01T01:56:39;102007.81;;;13.84;71.71
71805;BME280;59654;52.216;5.616;2022-09-01T01:57:12;102006.88;;;13.85;71.08
71805;BME280;59654;52.216;5.616;2022-09-01T01:57:47;102002.44;;;13.84;71.50
71805;BME280;59654;52.216;5.616;2022-09-01T01:58:22;102009.63;;;13.83;71.08
71805;BME280;59654;52.216;5.616;2022-09-01T01:58:55;102013.16;;;13.84;71.84
71805;BME280;59654;52.216;5.616;2022-09-01T01:59:27;102012.34;;;13.82;71.00
71805;BME280;59654;52.216;5.616;2022-09-01T01:59:59;102016.88;;;13.79;70.82
71805;BME280;59654;52.216;5.616;2022-09-01T02:00:31;102010.59;;;13.81;71.12
71805;BME280;59654;52.216;5.616;2022-09-01T02:01:05;102008.78;;;13.81;70.69
71805;BME280;59654;52.216;5.616;2022-09-01T02:01:37;102013.22;;;13.82;70.48
71805;BME280;59654;52.216;5.616;2022-09-01T02:02:09;102013.31;;;13.79;70.93
71805;BME280;59654;52.216;5.616;2022-09-01T02:02:42;102011.56;;;13.78;71.43
71805;BME280;59654;52.216;5.616;2022-09-01T02:03:15;102008.97;;;13.75;71.34
71805;BME280;59654;52.216;5.616;2022-09-01T02:03:51;102009.84;;;13.75;71.78
71805;BME280;59654;52.216;5.616;2022-09-01T02:04:24;102009.91;;;13.74;71.31
71805;BME280;59654;52.216;5.616;2022-09-01T02:04:57;102006.41;;;13.72;71.54
71805;BME280;59654;52.216;5.616;2022-09-01T02:05:32;102005.53;;;13.71;70.85
71805;BME280;59654;52.216;5.616;2022-09-01T02:06:08;102010.13;;;13.68;71.85
71805;BME280;59654;52.216;5.616;2022-09-01T02:06:42;102011.91;;;13.67;71.08
71805;BME280;59654;52.216;5.616;2022-09-01T02:07:16;102014.56;;;13.69;71.47
71805;BME280;59654;52.216;5.616;2022-09-01T02:07:48;102012.78;;;13.68;71.77
71805;BME280;59654;52.216;5.616;2022-09-01T02:08:22;102005.59;;;13.70;71.10
71805;BME280;59654;52.216;5.616;2022-09-01T02:08:56;102011.88;;;13.69;71.20
71805;BME280;59654;52.216;5.616;2022-09-01T02:09:27;102010.94;;;13.70;71.56
71805;BME280;59654;52.216;5.616;2022-09-01T02:09:58;102009.16;;;13.70;70.94
71805;BME280;59654;52.216;5.616;2022-09-01T02:10:34;102013.59;;;13.71;71.74
71805;BME280;59654;52.216;5.616;2022-09-01T02:11:08;102010.81;;;13.73;71.18
71805;BME280;59654;52.216;5.616;2022-09-01T02:11:39;102009.00;;;13.73;71.48
71805;BME280;59654;52.216;5.616;2022-09-01T02:12:11;102007.25;;;13.72;71.21
71805;BME280;59654;52.216;5.616;2022-09-01T02:12:42;102017.06;;;13.73;72.01
71805;BME280;59654;52.216;5.616;2022-09-01T02:13:17;102011.81;;;13.70;71.78
71805;BME280;59654;52.216;5.616;2022-09-01T02:13:52;102012.75;;;13.69;72.08
71805;BME280;59654;52.216;5.616;2022-09-01T02:14:26;102017.28;;;13.67;71.29
71805;BME280;59654;52.216;5.616;2022-09-01T02:14:57;102014.59;;;13.67;71.57
71805;BME280;59654;52.216;5.616;2022-09-01T02:15:31;102018.16;;;13.68;71.33
71805;BME280;59654;52.216;5.616;2022-09-01T02:16:12;102009.16;;;13.70;70.91
71805;BME280;59654;52.216;5.616;2022-09-01T02:16:43;102008.25;;;13.70;71.68
71805;BME280;59654;52.216;5.616;2022-09-01T02:17:14;102012.63;;;13.72;71.20
71805;BME280;59654;52.216;5.616;2022-09-01T02:17:45;102014.47;;;13.72;71.22
71805;BME280;59654;52.216;5.616;2022-09-01T02:18:19;102024.34;;;13.70;71.61
71805;BME280;59654;52.216;5.616;2022-09-01T02:18:53;102013.50;;;13.73;70.83
71805;BME280;59654;52.216;5.616;2022-09-01T02:19:24;102015.31;;;13.72;70.84
71805;BME280;59654;52.216;5.616;2022-09-01T02:19:55;102012.63;;;13.72;71.40
71805;BME280;59654;52.216;5.616;2022-09-01T02:20:26;102012.63;;;13.72;71.17
71805;BME280;59654;52.216;5.616;2022-09-01T02:20:59;102015.31;;;13.72;70.94
71805;BME280;59654;52.216;5.616;2022-09-01T02:21:31;102014.50;;;13.70;70.92
71805;BME280;59654;52.216;5.616;2022-09-01T02:22:03;102019.03;;;13.68;71.27
71805;BME280;59654;52.216;5.616;2022-09-01T02:22:34;102021.75;;;13.67;71.04
71805;BME280;59654;52.216;5.616;2022-09-01T02:23:08;102015.53;;;13.66;71.39
71805;BME280;59654;52.216;5.616;2022-09-01T02:23:41;102018.09;;;13.69;71.52
71805;BME280;59654;52.216;5.616;2022-09-01T02:24:12;102012.75;;;13.69;71.64
71805;BME280;59654;52.216;5.616;2022-09-01T02:24:42;102016.31;;;13.70;71.35
71805;BME280;59654;52.216;5.616;2022-09-01T02:25:18;102017.13;;;13.72;70.98
71805;BME280;59654;52.216;5.616;2022-09-01T02:25:55;102020.66;;;13.72;71.27
71805;BME280;59654;52.216;5.616;2022-09-01T02:26:39;102015.38;;;13.71;70.86
71805;BME280;59654;52.216;5.616;2022-09-01T02:27:15;102015.53;;;13.66;70.82
71805;BME280;59654;52.216;5.616;2022-09-01T02:27:55;102020.00;;;13.66;70.93
71805;BME280;59654;52.216;5.616;2022-09-01T02:28:30;102014.66;;;13.66;71.07
71805;BME280;59654;52.216;5.616;2022-09-01T02:29:04;102018.25;;;13.65;71.02
71805;BME280;59654;52.216;5.616;2022-09-01T02:29:40;102013.78;;;13.65;71.75
71805;BME280;59654;52.216;5.616;2022-09-01T02:30:11;102016.50;;;13.64;71.39
71805;BME280;59654;52.216;5.616;2022-09-01T02:30:43;102015.63;;;13.63;71.26
71805;BME280;59654;52.216;5.616;2022-09-01T02:31:15;102020.06;;;13.64;71.29
71805;BME280;59654;52.216;5.616;2022-09-01T02:31:52;102018.25;;;13.65;70.83
71805;BME280;59654;52.216;5.616;2022-09-01T02:32:23;102019.09;;;13.67;71.03
71805;BME280;59654;52.216;5.616;2022-09-01T02:32:54;102014.66;;;13.66;71.40
71805;BME280;59654;52.216;5.616;2022-09-01T02:33:26;102018.25;;;13.65;70.93
71805;BME280;59654;52.216;5.616;2022-09-01T02:33:58;102017.38;;;13.64;71.23
71805;BME280;59654;52.216;5.616;2022-09-01T02:34:30;102016.44;;;13.65;70.82
71805;BME280;59654;52.216;5.616;2022-09-01T02:35:03;102017.38;;;13.64;70.63
71805;BME280;59654;52.216;5.616;2022-09-01T02:35:36;102019.19;;;13.62;71.68
71805;BME280;59654;52.216;5.616;2022-09-01T02:36:11;102017.44;;;13.61;71.87
71805;BME280;59654;52.216;5.616;2022-09-01T02:36:47;102013.00;;;13.60;71.76
71805;BME280;59654;52.216;5.616;2022-09-01T02:37:26;102020.09;;;13.61;70.66
71805;BME280;59654;52.216;5.616;2022-09-01T02:37:57;102017.44;;;13.61;71.31
71805;BME280;59654;52.216;5.616;2022-09-01T02:38:30;102017.44;;;13.61;71.23
71805;BME280;59654;52.216;5.616;2022-09-01T02:39:03;102022.78;;;13.61;71.15
71805;BME280;59654;52.216;5.616;2022-09-01T02:39:34;102013.00;;;13.60;71.56
71805;BME280;59654;52.216;5.616;2022-09-01T02:40:08;102013.97;;;13.58;71.62
71805;BME280;59654;52.216;5.616;2022-09-01T02:40:46;102015.78;;;13.57;70.84
71805;BME280;59654;52.216;5.616;2022-09-01T02:41:18;102013.09;;;13.57;71.45
71805;BME280;59654;52.216;5.616;2022-09-01T02:41:53;102013.97;;;13.58;71.34
71805;BME280;59654;52.216;5.616;2022-09-01T02:42:28;102014.09;;;13.55;71.80
71805;BME280;59654;52.216;5.616;2022-09-01T02:43:00;102011.41;;;13.55;71.08
71805;BME280;59654;52.216;5.616;2022-09-01T02:43:31;102014.88;;;13.57;70.95
71805;BME280;59654;52.216;5.616;2022-09-01T02:44:03;102013.09;;;13.57;71.08
71805;BME280;59654;52.216;5.616;2022-09-01T02:44:41;102014.97;;;13.55;71.04
71805;BME280;59654;52.216;5.616;2022-09-01T02:45:13;102010.41;;;13.57;70.72
71805;BME280;59654;52.216;5.616;2022-09-01T02:45:49;102014.88;;;13.57;71.34
71805;BME280;59654;52.216;5.616;2022-09-01T02:46:27;102014.88;;;13.57;70.92
71805;BME280;59654;52.216;5.616;2022-09-01T02:46:59;102014.97;;;13.55;70.80
71805;BME280;59654;52.216;5.616;2022-09-01T02:47:31;102010.56;;;13.53;70.82
71805;BME280;59654;52.216;5.616;2022-09-01T02:48:02;102017.75;;;13.52;71.11
71805;BME280;59654;52.216;5.616;2022-09-01T02:48:40;102022.22;;;13.52;70.94
71805;BME280;59654;52.216;5.616;2022-09-01T02:49:15;102020.41;;;13.52;71.39
71805;BME280;59654;52.216;5.616;2022-09-01T02:49:49;102014.22;;;13.50;71.05
71805;BME280;59654;52.216;5.616;2022-09-01T02:50:20;102020.47;;;13.51;71.12
71805;BME280;59654;52.216;5.616;2022-09-01T02:50:51;102013.41;;;13.48;71.13
71805;BME280;59654;52.216;5.616;2022-09-01T02:51:23;102016.94;;;13.49;71.27
71805;BME280;59654;52.216;5.616;2022-09-01T02:51:58;102019.53;;;13.52;71.57
71805;BME280;59654;52.216;5.616;2022-09-01T02:52:31;102018.66;;;13.51;71.16
71805;BME280;59654;52.216;5.616;2022-09-01T02:53:08;102014.22;;;13.50;71.13
71805;BME280;59654;52.216;5.616;2022-09-01T02:53:43;102009.78;;;13.49;71.33
71805;BME280;59654;52.216;5.616;2022-09-01T02:54:18;102004.38;;;13.51;70.94
71805;BME280;59654;52.216;5.616;2022-09-01T02:54:52;102023.09;;;13.52;71.04
71805;BME280;59654;52.216;5.616;2022-09-01T02:55:23;102018.66;;;13.51;70.60
71805;BME280;59654;52.216;5.616;2022-09-01T02:55:54;102020.47;;;13.51;70.63
71805;BME280;59654;52.216;5.616;2022-09-01T02:56:28;102023.19;;;13.49;71.01
71805;BME280;59654;52.216;5.616;2022-09-01T02:56:59;102016.03;;;13.50;70.67
71805;BME280;59654;52.216;5.616;2022-09-01T02:57:30;102017.81;;;13.49;70.75
71805;BME280;59654;52.216;5.616;2022-09-01T02:58:05;102016.13;;;13.47;70.86
71805;BME280;59654;52.216;5.616;2022-09-01T02:58:43;102017.03;;;13.45;71.03
71805;BME280;59654;52.216;5.616;2022-09-01T02:59:18;102019.75;;;13.44;70.95
71805;BME280;59654;52.216;5.616;2022-09-01T02:59:51;102008.13;;;13.45;70.71
71805;BME280;59654;52.216;5.616;2022-09-01T03:00:23;102017.00;;;13.47;71.31
71805;BME280;59654;52.216;5.616;2022-09-01T03:01:31;102018.84;;;13.45;71.19
71805;BME280;59654;52.216;5.616;2022-09-01T03:02:03;102016.16;;;13.45;71.04
71805;BME280;59654;52.216;5.616;2022-09-01T03:02:36;102014.41;;;13.44;71.16
71805;BME280;59654;52.216;5.616;2022-09-01T03:03:08;102013.53;;;13.43;71.47
71805;BME280;59654;52.216;5.616;2022-09-01T03:03:41;102017.19;;;13.41;71.10
71805;BME280;59654;52.216;5.616;2022-09-01T03:04:13;102014.50;;;13.41;71.38
71805;BME280;59654;52.216;5.616;2022-09-01T03:04:44;102011.81;;;13.41;70.69
71805;BME280;59654;52.216;5.616;2022-09-01T03:05:14;102009.09;;;13.42;70.88
71805;BME280;59654;52.216;5.616;2022-09-01T03:05:46;102007.28;;;13.43;71.36
71805;BME280;59654;52.216;5.616;2022-09-01T03:06:18;102012.75;;;13.40;71.23
71805;BME280;59654;52.216;5.616;2022-09-01T03:06:53;102015.41;;;13.40;71.16
71805;BME280;59654;52.216;5.616;2022-09-01T03:07:27;102010.94;;;13.40;70.75
71805;BME280;59654;52.216;5.616;2022-09-01T03:08:03;102015.41;;;13.40;71.15
71805;BME280;59654;52.216;5.616;2022-09-01T03:08:36;102013.69;;;13.39;70.77
71805;BME280;59654;52.216;5.616;2022-09-01T03:09:12;102014.63;;;13.38;71.08
71805;BME280;59654;52.216;5.616;2022-09-01T03:09:44;102013.63;;;13.40;70.71
71805;BME280;59654;52.216;5.616;2022-09-01T03:10:15;102017.19;;;13.41;71.29